EW1821 Weather Reports


Display with metric or nautical units.
time (UTC)temp
F
wind
direction
speed
MPH
gust
MPH
rain 1hr
in
rain 24hr
in
rain mn
in
humidity
%
barometer
mb
20190325040441 56 34 0.0 0.0 0.00 0.00 0.00 24 1023.3
20190325035442 57 24 1.0 0.0 0.00 0.00 0.00 23 1023.1
20190325034440 57 359 0.0 0.0 0.00 0.00 0.00 22 1023.1
20190325033445 57 120 1.0 0.0 0.00 0.00 0.00 22 1022.8
20190325032433 57 137 1.0 0.0 0.00 0.00 0.00 22 1022.3
20190325023440 59 20 3.0 0.0 0.00 0.00 0.00 20 1021.7
20190325021443 59 360 0.0 0.0 0.00 0.00 0.00 21 1021.6
20190325020444 59 359 0.0 0.0 0.00 0.00 0.00 21 1021.2
20190325015445 60 357 1.0 0.0 0.00 0.00 0.00 20 1021.0
20190325012448 63 349 2.0 0.0 0.00 0.00 0.00 17 1020.6
20190325005440 66 37 3.0 0.0 0.00 0.00 0.00 15 1020.5
20190325004432 67 340 5.0 0.0 0.00 0.00 0.00 14 1020.5
20190325001435 69 359 4.0 0.0 0.00 0.00 0.00 15 1020.7
20190325000438 70 343 3.0 0.0 0.00 0.00 0.00 14 1020.3
20190324232436 71 336 5.0 0.0 0.00 0.00 0.00 12 1020.4
20190324231432 71 30 4.0 0.0 0.00 0.00 0.00 12 1020.4
20190324230433 70 306 4.0 0.0 0.00 0.00 0.00 11 1019.7
20190324221440 71 353 4.0 0.0 0.00 0.00 0.00 11 1019.9
20190324215442 70 344 6.0 0.0 0.00 0.00 0.00 11 1019.9
20190324213429 70 311 1.0 0.0 0.00 0.00 0.00 10 1020.3
20190324212430 69 268 1.0 0.0 0.00 0.00 0.00 14 1020.3
20190324211438 69 328 1.0 0.0 0.00 0.00 0.00 14 1020.3
20190324210440 68 189 1.0 0.0 0.00 0.00 0.00 15 1021.0
20190324205434 68 298 2.0 0.0 0.00 0.00 0.00 16 1021.2
20190324204433 68 174 3.0 0.0 0.00 0.00 0.00 16 1021.2
20190324203434 68 356 2.0 0.0 0.00 0.00 0.00 17 1020.8
20190324202435 68 357 3.0 0.0 0.00 0.00 0.00 18 1020.9
20190324201431 66 191 2.0 0.0 0.00 0.00 0.00 18 1020.9
20190324200433 66 210 3.0 0.0 0.00 0.00 0.00 19 1021.2
20190324191438 65 336 3.0 0.0 0.00 0.00 0.00 20 1021.5
20190324185442 63 318 4.0 0.0 0.00 0.00 0.00 21 1022.2
20190324184441 64 192 4.0 0.0 0.00 0.00 0.00 21 1022.2
20190324183443 63 179 3.0 0.0 0.00 0.00 0.00 21 1022.3
20190324182444 63 181 4.0 0.0 0.00 0.00 0.00 22 1022.2
20190324181439 63 241 1.0 0.0 0.00 0.00 0.00 22 1022.2
20190324174442 62 301 3.0 0.0 0.00 0.00 0.00 24 1022.4
20190324173443 61 311 3.0 0.0 0.00 0.00 0.00 22 1021.9
20190324172438 60 285 2.0 0.0 0.00 0.00 0.00 24 1021.9
20190324171437 60 181 2.0 0.0 0.00 0.00 0.00 22 1021.9
20190324165440 59 185 3.0 0.0 0.00 0.00 0.00 25 1022.1
20190324163442 59 172 1.0 0.0 0.00 0.00 0.00 27 1021.7
20190324162441 58 205 2.0 0.0 0.00 0.00 0.00 26 1021.4
20190324160432 57 169 2.0 0.0 0.00 0.00 0.00 27 1021.5
20190324155434 57 181 1.0 0.0 0.00 0.00 0.00 27 1021.4
20190324154433 56 220 1.0 0.0 0.00 0.00 0.00 28 1021.4
20190324153435 56 167 1.0 0.0 0.00 0.00 0.00 28 1021.7
20190324152439 54 164 0.0 0.0 0.00 0.00 0.00 29 1021.2
20190324145443 52 40 0.0 0.0 0.00 0.00 0.00 31 1021.1
20190324144435 50 34 0.0 0.0 0.00 0.00 0.00 32 1021.1
20190324143436 49 34 0.0 0.0 0.00 0.00 0.00 32 1021.0
20190324142433 47 34 0.0 0.0 0.00 0.00 0.00 34 1021.1
20190324141450 46 35 1.0 0.0 0.00 0.00 0.00 37 1021.1
20190324134434 45 64 0.0 0.0 0.00 0.00 0.00 39 1020.2
20190324132433 45 37 0.0 0.0 0.00 0.00 0.00 38 1019.8
20190324131431 45 42 1.0 0.0 0.00 0.00 0.00 37 1019.8
20190324125435 45 38 1.0 0.0 0.00 0.00 0.00 37 1019.2
20190324124447 46 48 0.0 0.0 0.00 0.00 0.00 35 1019.2
20190324123428 46 42 0.0 0.0 0.00 0.00 0.00 35 1019.0
20190324122442 46 54 0.0 0.0 0.00 0.00 0.00 35 1019.0
20190324121440 46 106 0.0 0.0 0.00 0.00 0.00 35 1019.0
20190324120445 46 37 1.0 0.0 0.00 0.00 0.00 36 1019.0
20190324115447 46 37 1.0 0.0 0.00 0.00 0.00 34 1019.0
20190324114443 47 49 0.0 0.0 0.00 0.00 0.00 33 1019.0
20190324113445 48 51 0.0 0.0 0.00 0.00 0.00 32 1019.0
20190324111443 48 51 0.0 0.0 0.00 0.00 0.00 31 1018.9
20190324110446 48 51 0.0 0.0 0.00 0.00 0.00 31 1019.4
20190324095446 47 54 0.0 0.0 0.00 0.00 0.00 34 1019.0
20190324093436 48 54 0.0 0.0 0.00 0.00 0.00 34 1019.0
20190324092435 48 54 0.0 0.0 0.00 0.00 0.00 34 1018.9
20190324091433 48 54 0.0 0.0 0.00 0.00 0.00 31 1018.9
20190324090435 49 54 0.0 0.0 0.00 0.00 0.00 29 1018.5
20190324085433 50 55 0.0 0.0 0.00 0.00 0.00 29 1019.0
20190324084431 52 162 1.0 0.0 0.00 0.00 0.00 27 1019.0
20190324083433 53 28 1.0 0.0 0.00 0.00 0.00 25 1018.7
20190324082439 53 37 2.0 0.0 0.00 0.00 0.00 24 1019.1
20190324081438 51 103 4.0 0.0 0.00 0.00 0.00 26 1019.1
20190324080439 51 66 1.0 0.0 0.00 0.00 0.00 27 1019.0
20190324075438 51 359 2.0 0.0 0.00 0.00 0.00 27 1019.1
20190324074434 51 28 1.0 0.0 0.00 0.00 0.00 27 1019.1
20190324073440 51 14 0.0 0.0 0.00 0.00 0.00 27 1019.1
20190324070442 51 357 1.0 0.0 0.00 0.00 0.00 26 1018.9
20190324065440 52 344 1.0 0.0 0.00 0.00 0.00 26 1018.8
20190324064437 52 335 2.0 0.0 0.00 0.00 0.00 25 1018.8
20190324063443 54 332 1.0 0.0 0.00 0.00 0.00 23 1019.2
20190324062444 54 16 1.0 0.0 0.00 0.00 0.00 23 1018.8
20190324052448 55 326 6.0 0.0 0.00 0.00 0.00 19 1019.3
20190324050430 55 357 5.0 0.0 0.00 0.00 0.00 18 1019.1
20190324042436 55 354 3.0 0.0 0.00 0.00 0.00 20 1019.4